createdAt,value
2019-04-22T00:02:58.051Z,0
2019-04-22T00:06:49.557Z,0
2019-04-22T00:10:32.019Z,0
2019-04-22T00:14:00.551Z,0
2019-04-22T00:21:12.021Z,0
2019-04-22T00:24:43.438Z,0
2019-04-22T00:28:21.326Z,0
2019-04-22T00:31:52.605Z,0
2019-04-22T00:35:29.092Z,0
2019-04-22T00:39:06.376Z,0
2019-04-22T00:42:40.782Z,0
2019-04-22T00:46:17.395Z,0
2019-04-22T00:53:29.462Z,0
2019-04-22T00:57:01.007Z,0
2019-04-22T01:00:37.398Z,0
2019-04-22T01:07:42.813Z,0
2019-04-22T01:11:22.527Z,0
2019-04-22T01:14:53.624Z,0
2019-04-22T01:18:27.753Z,0
2019-04-22T01:22:04.474Z,0
2019-04-22T01:25:36.312Z,0
2019-04-22T01:29:04.887Z,0
2019-04-22T01:32:32.720Z,0
2019-04-22T01:36:19.294Z,0
2019-04-22T01:40:04.347Z,0
2019-04-22T01:43:40.652Z,0
2019-04-22T01:47:09.914Z,0
2019-04-22T01:50:42.617Z,0
2019-04-22T01:54:29.088Z,0
2019-04-22T01:57:53.153Z,0
2019-04-22T02:01:36.914Z,0
2019-04-22T02:08:44.493Z,0
2019-04-22T02:15:51.779Z,0
2019-04-22T02:19:30.163Z,0
2019-04-22T02:23:15.096Z,0
2019-04-22T02:26:39.806Z,0
2019-04-22T02:30:05.095Z,0
2019-04-22T02:37:22.596Z,0
2019-04-22T02:41:15.544Z,0
2019-04-22T02:48:23.567Z,0
2019-04-22T02:51:36.389Z,0
2019-04-22T02:55:31.735Z,0
2019-04-22T02:59:01.902Z,0
2019-04-22T03:04:22.090Z,0
2019-04-22T03:08:06.076Z,0
2019-04-22T03:11:56.338Z,0
2019-04-22T03:15:07.214Z,0
2019-04-22T03:19:01.811Z,1
2019-04-22T03:22:20.510Z,2
2019-04-22T03:29:27.860Z,6
2019-04-22T03:40:29.764Z,31
2019-04-22T03:51:07.289Z,100
2019-04-22T03:54:45.315Z,134
2019-04-22T03:58:20.677Z,175
2019-04-22T04:05:32.973Z,270
2019-04-22T04:08:58.704Z,322
2019-04-22T04:12:27.858Z,375
2019-04-22T04:16:02.695Z,429
2019-04-22T04:19:43.024Z,484
2019-04-22T04:34:03.103Z,686
2019-04-22T04:37:51.146Z,734
2019-04-22T04:41:15.088Z,778
2019-04-22T04:48:20.566Z,856
2019-04-22T04:51:55.400Z,893
2019-04-22T04:55:27.637Z,931
2019-04-22T04:59:22.389Z,961
2019-04-22T05:02:52.039Z,990
2019-04-22T05:06:32.872Z,1017
2019-04-22T05:09:51.414Z,1041
2019-04-22T05:13:22.668Z,1063
2019-04-22T05:17:12.489Z,1084
2019-04-22T05:20:40.353Z,1104
2019-04-22T05:24:09.165Z,1124
2019-04-22T05:27:39.326Z,1141
2019-04-22T05:31:13.833Z,1157
2019-04-22T05:34:47.778Z,1171
2019-04-22T05:38:25.582Z,1182
2019-04-22T05:42:02.945Z,1196
2019-04-22T05:45:31.014Z,1205
2019-04-22T05:49:12.762Z,1217
2019-04-22T05:52:40.241Z,1231
2019-04-22T05:56:26.574Z,1242
2019-04-22T05:59:51.799Z,1251
2019-04-22T06:03:28.203Z,1260
2019-04-22T06:06:59.635Z,1275
2019-04-22T06:10:45.192Z,1291
2019-04-22T06:14:07.178Z,1321
2019-04-22T06:17:54.571Z,1341
2019-04-22T06:21:26.288Z,1362
2019-04-22T06:25:00.655Z,1382
2019-04-22T06:28:40.413Z,1410
2019-04-22T06:32:26.172Z,1437
2019-04-22T06:35:43.398Z,1461
2019-04-22T06:39:20.979Z,1483
2019-04-22T06:42:57.411Z,1493
2019-04-22T06:46:26.973Z,1509
2019-04-22T06:49:58.517Z,1523
2019-04-22T06:53:40.329Z,1532
2019-04-22T06:57:11.363Z,1541
2019-04-22T07:00:44.258Z,1553
2019-04-22T07:04:21.114Z,1579
2019-04-22T07:08:03.930Z,1591
2019-04-22T07:11:29.440Z,1607
2019-04-22T07:15:10.883Z,1622
2019-04-22T07:18:42.813Z,1629
2019-04-22T07:25:57.747Z,1664
2019-04-22T07:29:32.127Z,1677
2019-04-22T07:40:16.381Z,1726
2019-04-22T07:44:04.675Z,1743
2019-04-22T07:47:31.001Z,1763
2019-04-22T07:51:06.840Z,1778
2019-04-22T07:54:41.240Z,1785
2019-04-22T07:58:11.575Z,1788
2019-04-22T08:01:41.347Z,1812
2019-04-22T08:05:24.345Z,1827
2019-04-22T08:08:59.682Z,1858
2019-04-22T08:12:45.501Z,1936
2019-04-22T08:19:41.536Z,1995
2019-04-22T08:23:15.984Z,2029
2019-04-22T08:26:52.943Z,2058
2019-04-22T08:34:01.485Z,2125
2019-04-22T08:37:47.213Z,2155
2019-04-22T08:45:05.506Z,2179
2019-04-22T08:48:22.556Z,2210
2019-04-22T08:51:54.812Z,2251
2019-04-22T09:04:41.905Z,2450
2019-04-22T09:08:18.522Z,2532
2019-04-22T09:11:54.210Z,2599
2019-04-22T09:15:30.283Z,2681
2019-04-22T09:19:05.314Z,2830
2019-04-22T09:22:32.109Z,3001
2019-04-22T09:26:15.239Z,3175
2019-04-22T09:37:05.778Z,3737
2019-04-22T09:40:34.063Z,4211
2019-04-22T09:44:21.515Z,4965
2019-04-22T09:47:48.538Z,5251
2019-04-22T09:51:18.408Z,27296
2019-04-22T09:54:59.379Z,33640
2019-04-22T09:58:31.233Z,35744
2019-04-22T10:02:19.184Z,36184
2019-04-22T10:05:40.510Z,36456
2019-04-22T10:12:46.382Z,65480
2019-04-22T10:19:59.474Z,65535
2019-04-22T10:23:31.154Z,65535
2019-04-22T10:27:05.755Z,65535
2019-04-22T10:30:51.868Z,47280
2019-04-22T10:34:08.151Z,44928
2019-04-22T10:37:28.081Z,43584
2019-04-22T10:41:02.709Z,6926
2019-04-22T10:44:33.228Z,8041
2019-04-22T10:48:05.982Z,9733
2019-04-22T10:51:37.429Z,13440
2019-04-22T10:55:11.523Z,24632
2019-04-22T10:58:44.533Z,30008
